Tiempo atmosférico en la estación meteorológica de Villarrobledo, Albacete (718 m.)



Fecha
DESCASC
Temp. máxima en grados centígrados (hora)
DESCASC
Temp. mínima en grados centígrados (hora)
DESCASC
Temp. media en grados centígrados
DESCASC
Racha de viento máxima en m/sg (hora)
DESCASC
Velocidad máxima media en intervalos de 10 minutos(hora)
DESCASC
Precipitaciones diarias en mm
DESCASC
Precipitaciones de 00:00 a 06:00 en mm
DESCASC
Precipitaciones de 06:00 a 12:00 en mm
DESCASC
Precipitaciones de 12:00 a 18:00 en mm
DESCASC
Precipitaciones de 18:00 a 24:00 en mm
DESCASC
03-12-2020 9.7 (15:50) -2.8 (07:00) 3.4 10 (22:30) 6.39 (21:30) 0 0 0 0 0
02-12-2020 14.2 (13:50) 0.8 (23:50) 7.5 9.44 (13:10) 5.28 (13:10) 0.2 0.2 0 0 0
01-12-2020 7.9 (15:30) 2.5 (08:30) 5.2 7.5 (18:00) 5.28 (19:20) 0.2 0.2 0 0 0
30-11-2020 13.5 (14:20) 3.4 (00:00) 8.5 9.17 (14:40) 4.17 (14:40) 0.2 0.2 0 0 0
29-11-2020 14.2 (15:20) 3 (00:00) 8.6 5.83 (13:30) 3.89 (11:20) 0 0 0 0 0
28-11-2020 9.9 (14:10) 4.8 (00:00) 7.3 6.11 (16:10) 3.89 (16:50) 1 1 0 0 0
27-11-2020 10.6 (03:30) 6.2 (00:00) 8.4 11.94 (13:50) 7.5 (14:10) 16.6 0 7.6 8.6 0.4
26-11-2020 14 (15:00) 7.6 (00:00) 10.8 13.06 (15:00) 7.22 (15:00) 0.2 0 0.2 0 0
25-11-2020 15.8 (15:10) 2.6 (00:00) 9.2 8.61 (12:20) 4.44 (13:30) 0 0 0 0 0
24-11-2020 17 (15:40) -0.9 (-00:0) 8.1 4.72 (15:20) 3.06 (10:30) 0 0 0 0 0
23-11-2020 16.1 (15:50) -0.9 (-00:0) 7.6 7.5 (13:30) 5 (13:40) 0 0 0 0 0
22-11-2020 17.4 (15:10) 1.6 (00:00) 9.5 6.39 (08:20) 3.89 (06:50) 0 0 0 0 0
21-11-2020 16.1 (14:50) 1.6 (00:00) 8.9 8.89 (15:20) 4.72 (16:00) 0 0 0 0 0
20-11-2020 20 (14:00) 3.4 (00:00) 11.7 3.33 (11:50) 1.67 (23:00) 0 0 0 0 0
19-11-2020 22.6 (15:30) 5.1 (00:00) 13.9 4.44 (15:10) 2.5 (14:30) 0 0 0 0 0
18-11-2020 21.9 (13:50) 5.5 (00:00) 13.7 4.17 (16:20) 2.78 (16:20) 0 0 0 0 0
17-11-2020 21.6 (13:40) 6.6 (00:00) 14.1 4.44 (14:40) 2.5 (16:40) 0 0 0 0 0
16-11-2020 21.1 (14:30) 9.6 (00:00) 15.4 6.11 (15:00) 3.61 (10:40) 0 0 0 0 0
15-11-2020 20.1 (14:10) 10.1 (00:00) 15.1 10 (15:10) 6.67 (15:10) 0 0 0 0 0
14-11-2020 14.7 (15:10) 9.3 (00:00) 12 5.28 (23:50) 3.33 (23:59) 1.2 0 0.8 0.2 0.2
13-11-2020 21.4 (15:00) 7 (00:00) 14.2 5.28 (02:50) 3.06 (02:30) 0 0 0 0 0
12-11-2020 17.1 (15:40) 5.3 (00:00) 11.2 8.89 (15:30) 4.72 (16:10) 0 0 0 0 0
11-11-2020 19.6 (14:40) 5.2 (00:00) 12.4 6.11 (04:00) 3.89 (12:10) 0 0 0 0 0
10-11-2020 21.1 (14:40) 6.1 (00:00) 13.6 3.61 (15:20) 1.67 (15:30) 0.2 0 0.2 0 0
09-11-2020 17.7 (15:50) 7.3 (00:00) 12.5 7.78 (15:00) 3.89 (14:50) 0.2 0 0 0.2 0
08-11-2020 20.2 (15:30) 5 (00:00) 12.6 5.56 (13:10) 3.61 (13:10) 0 0 0 0 0
07-11-2020 16.9 (13:30) 7.7 (00:00) 12.3 16.11 (06:10) 8.89 (06:10) 7.4 7.2 0.2 0 0
06-11-2020 18.7 (13:30) 11.5 (00:00) 15.1 16.11 (12:30) 7.78 (13:00) 0.2 0 0 0 0.2
05-11-2020 12.6 (16:00) 9.8 (00:00) 11.2 17.5 (09:50) 11.39 (09:50) 36 0 13.8 22 0.2

Gráficas

Temp. máximas Temp. mínimas Temp. medias Precipitaciones Rachas de viento máximas Velocidades máximas media en intervalos de 10 minutos

Datos horarios

Fecha y hora oficial Temperatura (ºC) Velocidad del viento (km/h) Dirección del viento Racha (km/h) Dirección de racha Precipitación (mm) Presión (hPa) Tendencia (hPa) Humedad (%)
2020-12-04 23:00:00 2.4 17 Sudoeste 39 Oeste 0.2 -- -- 90
2020-12-04 22:00:00 2.9 18 Oeste 32 Oeste 0 -- -- 89
2020-12-04 21:00:00 3 17 Sudoeste 33 Sudoeste 0.2 -- -- 88
2020-12-04 20:00:00 3.7 12 Sudoeste 25 Sudoeste 0 -- -- 84
2020-12-04 19:00:00 3.8 13 Sudoeste 24 Oeste 0 -- -- 83
2020-12-04 18:00:00 4.2 16 Sudoeste 34 Oeste 0 -- -- 84
2020-12-04 17:00:00 4.6 19 Sudoeste 39 Sudoeste 0 -- -- 81
2020-12-04 16:00:00 5.3 21 Sudoeste 47 Oeste 0 -- -- 78
2020-12-04 15:00:00 6.2 31 Sudoeste 58 Sudoeste 0 -- -- 76
2020-12-04 14:00:00 7.3 32 Oeste 53 Oeste 0 -- -- 72
2020-12-04 13:00:00 5.5 21 Oeste 42 Oeste 0.2 -- -- 83
2020-12-04 12:00:00 4.9 30 Oeste 47 Oeste 1.2 -- -- 88
2020-12-04 11:00:00 5.1 28 Oeste 54 Oeste 0.4 -- -- 84
2020-12-04 10:00:00 6.6 30 Sudoeste 55 Oeste 0.2 -- -- 89
2020-12-04 09:00:00 6.6 34 Sudoeste 62 Sudoeste 1.2 -- -- 91
2020-12-04 08:00:00 6.8 36 Sudoeste 63 Sudoeste 0 -- -- 86
2020-12-04 07:00:00 6.4 41 Sudoeste 63 Sudoeste 0 -- -- 87
2020-12-04 06:00:00 6.6 37 Sudoeste 56 Sudoeste 0 -- -- 84
2020-12-04 05:00:00 6.7 36 Sudoeste 58 Sudoeste 0 -- -- 83
2020-12-04 04:00:00 6.5 29 Sudoeste 57 Sudoeste 0 -- -- 82
2020-12-04 03:00:00 6.6 29 Sudoeste 54 Sudoeste 0 -- -- 78
2020-12-04 02:00:00 6.3 27 Sudoeste 46 Oeste 0 -- -- 78
2020-12-04 01:00:00 6.2 25 Sudoeste 42 Sudoeste 0 -- -- 77
2020-12-04 00:00:00 5.4 21 Sudoeste 36 Sudoeste 0 -- -- 71
2020-12-03 23:00:00 4.9 18 Sudoeste 36 Sudoeste 0 -- -- 70
2020-12-03 22:00:00 5.1 17 Sudoeste 35 Sudoeste 0 -- -- 64
2020-12-03 21:00:00 4.6 16 Sudoeste 31 Sudoeste 0 -- -- 64
2020-12-03 20:00:00 5.1 14 Sudoeste 24 Sudoeste 0 -- -- 63
2020-12-03 19:00:00 5.9 13 Sudoeste 22 Sudoeste 0 -- -- 60
2020-12-03 18:00:00 6.6 14 Sudoeste 24 Sudoeste 0 -- -- 55
2020-12-03 17:00:00 8.4 15 Sudoeste 28 Sudoeste 0 -- -- 48
2020-12-03 16:00:00 9.4 16 Oeste 30 Oeste 0 -- -- 45
2020-12-03 15:00:00 9.2 18 Oeste 26 Oeste 0 -- -- 47
2020-12-03 14:00:00 8.3 17 Oeste 27 Oeste 0 -- -- 53
2020-12-03 13:00:00 6.7 18 Oeste 26 Oeste 0 -- -- 57
2020-12-03 12:00:00 5.2 15 Oeste 25 Oeste 0 -- -- 64
2020-12-03 11:00:00 3.4 14 Sudoeste 22 Oeste 0 -- -- 73
2020-12-03 10:00:00 1.1 13 Oeste 20 Oeste 0 -- -- 79
2020-12-03 09:00:00 -2.4 3 Oeste 7 Sudoeste 0 -- -- 88
2020-12-03 08:00:00 -2.7 4 Oeste 6 Oeste 0 -- -- 89
2020-12-03 07:00:00 -2.8 4 Oeste 10 Sudoeste 0 -- -- 89
2020-12-03 06:00:00 -2.4 5 Sudoeste 9 Sudoeste 0 -- -- 88
2020-12-03 05:00:00 -1.9 2 Sur 5 Sur 0 -- -- 87
2020-12-03 04:00:00 -1.2 0 Calma 7 Norte 0 -- -- 83
2020-12-03 03:00:00 -1.2 3 Oeste 6 Sudoeste 0 -- -- 83
2020-12-03 02:00:00 -0.4 3 Sudoeste 5 Sur 0 -- -- 80
2020-12-03 01:00:00 -0.5 2 Oeste 8 Sur 0 -- -- 82
2020-12-03 00:00:00 0.8 6 Sudoeste 14 Noroeste 0 -- -- 76
2020-12-02 23:00:00 2.6 7 Norte 17 Norte 0 -- -- 65
2020-12-02 22:00:00 3.6 5 Oeste 14 Noroeste 0 -- -- 64
2020-12-02 21:00:00 4.2 8 Oeste 12 Noroeste 0 -- -- 62
2020-12-02 20:00:00 4.9 6 Noroeste 19 Norte 0 -- -- 60
2020-12-02 19:00:00 5.8 9 Norte 19 Oeste 0 -- -- 57
2020-12-02 18:00:00 7 9 Noroeste 21 Norte 0 -- -- 51
2020-12-02 17:00:00 10.9 13 Norte 29 Norte 0 -- -- 38
2020-12-02 16:00:00 12.9 15 Norte 31 Norte 0 -- -- 35
2020-12-02 15:00:00 13.9 13 Norte 27 Norte 0 -- -- 37
2020-12-02 14:00:00 13.9 15 Norte 34 Norte 0 -- -- 38
2020-12-02 13:00:00 13.9 15 Noroeste 32 Norte 0 -- -- 41
2020-12-02 12:00:00 12.6 14 Noroeste 23 Noroeste 0 -- -- 56
2020-12-02 11:00:00 8.7 13 Oeste 22 Oeste 0 -- -- 93
2020-12-02 10:00:00 5.4 10 Oeste 15 Oeste 0 -- -- 96
2020-12-02 09:00:00 2.9 11 Oeste 18 Oeste 0 -- -- 97
2020-12-02 08:00:00 2.4 10 Oeste 16 Oeste 0 -- -- 97
2020-12-02 07:00:00 2.8 10 Oeste 16 Oeste 0 -- -- 97
2020-12-02 06:00:00 2 10 Oeste 19 Oeste 0 -- -- 97
2020-12-02 05:00:00 2 12 Oeste 19 Oeste 0 -- -- 97
2020-12-02 04:00:00 2.2 13 Oeste 17 Oeste 0 -- -- 97
2020-12-02 03:00:00 2.2 11 Sudoeste 17 Sudoeste 0.2 -- -- 97
2020-12-02 02:00:00 2.1 10 Sudoeste 17 Oeste 0 -- -- 96
2020-12-02 01:00:00 2.6 11 Oeste 16 Oeste 0 -- -- 96
2020-12-02 00:00:00 3.2 10 Oeste 17 Sudoeste 0 -- -- 96
2020-12-01 23:00:00 3.9 12 Oeste 20 Sudoeste 0 -- -- 96
2020-12-01 22:00:00 4.6 13 Oeste 21 Oeste 0 -- -- 96
2020-12-01 21:00:00 5.1 13 Oeste 21 Oeste 0 -- -- 96
2020-12-01 20:00:00 5.6 17 Oeste 26 Oeste 0 -- -- 95
2020-12-01 19:00:00 6.1 18 Oeste 26 Oeste 0 -- -- 95
2020-12-01 18:00:00 7 16 Oeste 27 Oeste 0 -- -- 95
2020-12-01 17:00:00 7.5 12 Sudoeste 23 Sudoeste 0 -- -- 95
2020-12-01 16:00:00 7.9 13 Oeste 24 Sudoeste 0 -- -- 95
2020-12-01 15:00:00 7.6 15 Oeste 24 Sudoeste 0 -- -- 94
2020-12-01 14:00:00 7.5 15 Oeste 21 Oeste 0 -- -- 94
2020-12-01 13:00:00 7.1 13 Oeste 19 Oeste 0 -- -- 94
2020-12-01 12:00:00 6.7 9 Oeste 13 Oeste 0 -- -- 95
2020-12-01 11:00:00 5.3 8 Sudoeste 10 Sudoeste 0 -- -- 95
2020-12-01 10:00:00 4.5 4 Sudoeste 7 Sur 0 -- -- 95
2020-12-01 09:00:00 3.5 0 Calma 5 Norte 0 -- -- 96
2020-12-01 08:00:00 2.6 0 Calma 6 Sur 0 -- -- 95
2020-12-01 07:00:00 3.3 2 Sudeste 9 Sudeste 0 -- -- 95
2020-12-01 06:00:00 3.6 3 Este 9 Nordeste 0.2 -- -- 95
2020-12-01 05:00:00 3.6 5 Nordeste 8 Nordeste 0 -- -- 95
2020-12-01 04:00:00 4.7 3 Nordeste 9 Este 0 -- -- 95
2020-12-01 03:00:00 5.6 5 Este 10 Nordeste 0 -- -- 94
2020-12-01 02:00:00 6 10 Este 22 Este 0 -- -- 94
2020-12-01 01:00:00 6.2 9 Nordeste 19 Nordeste 0 -- -- 93
2020-12-01 00:00:00 6.6 12 Nordeste 18 Nordeste 0 -- -- 93
2020-11-30 23:00:00 6.7 6 Nordeste 15 Nordeste 0 -- -- 92
2020-11-30 22:00:00 7.6 10 Nordeste 17 Nordeste 0 -- -- 91
2020-11-30 21:00:00 7.8 8 Nordeste 10 Este 0 -- -- 91
2020-11-30 20:00:00 8.6 8 Nordeste 12 Nordeste 0 -- -- 89
2020-11-30 19:00:00 9.6 8 Nordeste 12 Nordeste 0 -- -- 88
2020-11-30 18:00:00 10.7 6 Nordeste 14 Este 0 -- -- 83
2020-11-30 17:00:00 12.3 6 Este 19 Nordeste 0 -- -- 77
2020-11-30 16:00:00 13.2 9 Este 27 Sudeste 0 -- -- 72
2020-11-30 15:00:00 13.3 13 Este 33 Este 0 -- -- 71
2020-11-30 14:00:00 12.9 13 Este 27 Este 0 -- -- 74
2020-11-30 13:00:00 10.9 12 Este 26 Este 0 -- -- 93
2020-11-30 12:00:00 8.7 11 Este 26 Nordeste 0 -- -- 95
2020-11-30 11:00:00 7.1 12 Este 26 Nordeste 0 -- -- 95
2020-11-30 10:00:00 6 14 Este 23 Este 0 -- -- 95
2020-11-30 09:00:00 5.4 11 Este 21 Este 0 -- -- 95
2020-11-30 08:00:00 5 10 Este 18 Este 0 -- -- 95
2020-11-30 07:00:00 4.8 8 Este 20 Este 0 -- -- 95
2020-11-30 06:00:00 4.7 11 Este 20 Nordeste 0 -- -- 95
2020-11-30 05:00:00 4.5 11 Este 19 Este 0.2 -- -- 94
2020-11-30 04:00:00 3.8 13 Nordeste 22 Este 0 -- -- 94
2020-11-30 03:00:00 3.9 13 Nordeste 19 Nordeste 0 -- -- 94
2020-11-30 02:00:00 3.7 9 Nordeste 17 Nordeste 0 -- -- 93
2020-11-30 01:00:00 4.6 9 Nordeste 15 Este 0 -- -- 93
2020-11-30 00:00:00 4.7 9 Nordeste 13 Este 0 -- -- 92
2020-11-29 23:00:00 4.7 5 Nordeste 9 Nordeste 0 -- -- 91
2020-11-29 22:00:00 5.2 7 Nordeste 10 Nordeste 0 -- -- 90
2020-11-29 21:00:00 6 6 Nordeste 9 Nordeste 0 -- -- 88
2020-11-29 20:00:00 7.6 3 Este 10 Sudeste 0 -- -- 84
2020-11-29 19:00:00 8.5 3 Este 8 Sudeste 0 -- -- 79
2020-11-29 18:00:00 9.8 5 Este 13 Este 0 -- -- 74
2020-11-29 17:00:00 12.2 7 Este 16 Nordeste 0 -- -- 66
2020-11-29 16:00:00 14 10 Nordeste 17 Nordeste 0 -- -- 61
2020-11-29 15:00:00 13.8 11 Este 19 Nordeste 0 -- -- 63
2020-11-29 14:00:00 13.3 13 Nordeste 21 Nordeste 0 -- -- 70
2020-11-29 13:00:00 12.3 12 Nordeste 18 Nordeste 0 -- -- 73
2020-11-29 12:00:00 8.5 13 Nordeste 21 Nordeste 0 -- -- 89
2020-11-29 11:00:00 8.9 13 Nordeste 18 Este 0 -- -- 84
2020-11-29 10:00:00 6.7 6 Este 11 Nordeste 0 -- -- 95
2020-11-29 09:00:00 5.4 3 Este 10 Este 0 -- -- 95
2020-11-29 08:00:00 4 0 Calma 7 Este 0 -- -- 94
2020-11-29 07:00:00 3.9 3 Este 12 Nordeste 0 -- -- 95
2020-11-29 06:00:00 3.2 7 Este 10 Nordeste 0 -- -- 94
2020-11-29 05:00:00 3.2 5 Nordeste 7 Nordeste 0 -- -- 94
2020-11-29 04:00:00 3.1 0 Calma 4 Este 0 -- -- 94
2020-11-29 03:00:00 3.8 0 Calma 6 Sudeste 0 -- -- 94
2020-11-29 02:00:00 4 3 Sur 6 Sur 0 -- -- 94
2020-11-29 01:00:00 4.2 0 Calma 6 Sudeste 0 -- -- 94
2020-11-29 00:00:00 4.8 3 Sudeste 6 Sudoeste 0 -- -- 93
2020-11-28 23:00:00 5.4 0 Calma 4 Sudeste 0 -- -- 92
2020-11-28 22:00:00 5.2 0 Calma 5 Sur 0 -- -- 92
2020-11-28 21:00:00 5.4 3 Sudoeste 6 Sur 0 -- -- 92
2020-11-28 20:00:00 5.8 2 Sur 9 Sudoeste 0 -- -- 91
2020-11-28 19:00:00 6.2 4 Oeste 10 Oeste 0 -- -- 88
2020-11-28 18:00:00 7.7 3 Sudoeste 17 Oeste 0 -- -- 82
2020-11-28 17:00:00 8.9 12 Oeste 22 Sudoeste 0 -- -- 79
2020-11-28 16:00:00 9.1 14 Oeste 22 Oeste 0 -- -- 79
2020-11-28 15:00:00 9.1 8 Sudoeste 16 Oeste 0 -- -- 78
2020-11-28 14:00:00 9.7 10 Oeste 15 Oeste 0 -- -- 76
2020-11-28 13:00:00 8.6 11 Sudoeste 20 Sudoeste 0 -- -- 81
2020-11-28 12:00:00 8.8 9 Sudoeste 16 Oeste 0 -- -- 78
2020-11-28 11:00:00 7.9 11 Sudoeste 17 Sudoeste 0 -- -- 90
2020-11-28 10:00:00 6.6 4 Sudoeste 9 Sudoeste 0 -- -- 94
2020-11-28 09:00:00 5.1 3 Sudeste 6 Sudeste 0 -- -- 94
2020-11-28 08:00:00 4.9 0 Calma 12 Oeste 0 -- -- 94
2020-11-28 07:00:00 5.8 0 Calma 5 Norte 0 -- -- 93
2020-11-28 06:00:00 5.9 2 Norte 11 Noroeste 0 -- -- 93
2020-11-28 05:00:00 6 5 Noroeste 12 Noroeste 0.2 -- -- 92
2020-11-28 04:00:00 6.1 6 Oeste 12 Oeste 0.8 -- -- 91
2020-11-28 03:00:00 6.4 2 Noroeste 6 Nordeste 0 -- -- 89
2020-11-28 02:00:00 6.3 0 Calma 8 Este 0 -- -- 89
2020-11-28 01:00:00 5.9 3 Sudeste 6 Sudeste 0 -- -- 90
2020-11-28 00:00:00 6.2 0 Calma 6 Sudeste 0 -- -- 88
2020-11-27 23:00:00 6.5 3 Sudeste 10 Sudeste 0 -- -- 87
2020-11-27 22:00:00 6.4 7 Este 17 Nordeste 0 -- -- 87
2020-11-27 21:00:00 6.5 12 Nordeste 29 Nordeste 0 -- -- 89
2020-11-27 20:00:00 6.9 21 Nordeste 32 Nordeste 0 -- -- 92
2020-11-27 19:00:00 7 12 Nordeste 23 Nordeste 0.4 -- -- 92
2020-11-27 18:00:00 7.3 12 Nordeste 21 Nordeste 1.2 -- -- 92
2020-11-27 17:00:00 7.6 13 Nordeste 23 Nordeste 1 -- -- 91
2020-11-27 16:00:00 8.1 16 Nordeste 26 Nordeste 2.6 -- -- 91
2020-11-27 15:00:00 8.7 8 Este 39 Nordeste 3.6 -- -- 89
2020-11-27 14:00:00 10.6 24 Nordeste 43 Nordeste 0 -- -- 76
2020-11-27 13:00:00 9.3 23 Nordeste 35 Nordeste 0.2 -- -- 86
2020-11-27 12:00:00 8.9 20 Nordeste 34 Nordeste 0 -- -- 88
2020-11-27 11:00:00 8.6 20 Nordeste 31 Nordeste 0.2 -- -- 91
2020-11-27 10:00:00 8.4 21 Nordeste 32 Nordeste 2.6 -- -- 91
2020-11-27 09:00:00 9.1 15 Este 37 Sudeste 2.6 -- -- 86
2020-11-27 08:00:00 9.7 9 Sudeste 23 Nordeste 2 -- -- 90
2020-11-27 07:00:00 9.9 15 Nordeste 29 Nordeste 0.2 -- -- 88
2020-11-27 06:00:00 10 17 Este 28 Este 0 -- -- 87
2020-11-27 05:00:00 10.2 12 Este 33 Este 0 -- -- 86
2020-11-27 04:00:00 10.5 15 Este 35 Este 0 -- -- 83
2020-11-27 03:00:00 10.3 15 Este 27 Este 0 -- -- 83
2020-11-27 02:00:00 10 17 Este 31 Este 0 -- -- 83
2020-11-27 01:00:00 10.1 11 Este 23 Nordeste 0 -- -- 83
2020-11-27 00:00:00 10.5 9 Este 24 Este 0 -- -- 83
2020-11-26 23:00:00 10.8 8 Este 27 Este 0 -- -- 83
2020-11-26 22:00:00 10.6 13 Este 28 Este 0 -- -- 86
2020-11-26 21:00:00 10.9 11 Este 26 Nordeste 0 -- -- 83
2020-11-26 20:00:00 11.4 9 Este 27 Sudeste 0 -- -- 78
2020-11-26 19:00:00 11.9 12 Este 35 Este 0 -- -- 75
2020-11-26 18:00:00 12.1 10 Este 32 Nordeste 0 -- -- 74
2020-11-26 17:00:00 13.3 15 Este 39 Este 0 -- -- 68
2020-11-26 16:00:00 13.6 15 Este 36 Este 0 -- -- 66
2020-11-26 15:00:00 14 26 Este 47 Este 0 -- -- 62
2020-11-26 14:00:00 12.1 17 Este 35 Este 0 -- -- 79
2020-11-26 13:00:00 11.7 14 Este 41 Este 0 -- -- 80
2020-11-26 12:00:00 11 15 Este 39 Este 0 -- -- 83
2020-11-26 11:00:00 10.6 17 Este 40 Este 0 -- -- 85
2020-11-26 10:00:00 9.6 13 Este 32 Este 0 -- -- 89
2020-11-26 09:00:00 9 9 Este 36 Este 0 -- -- 90
2020-11-26 08:00:00 8.5 19 Este 35 Este 0 -- -- 90
2020-11-26 07:00:00 8.4 12 Este 40 Este 0.2 -- -- 90
2020-11-26 06:00:00 8.5 15 Este 40 Este 0 -- -- 88
2020-11-26 05:00:00 8.4 13 Este 31 Este 0 -- -- 86
2020-11-26 04:00:00 7.9 12 Este 33 Este 0 -- -- 85
2020-11-26 03:00:00 7.9 12 Este 33 Nordeste 0 -- -- 85
2020-11-26 02:00:00 7.7 14 Este 38 Este 0 -- -- 85
2020-11-26 01:00:00 8.2 14 Este 32 Este 0 -- -- 85
2020-11-26 00:00:00 7.9 11 Este 23 Nordeste 0 -- -- 86
2020-11-25 23:00:00 7.8 9 Este 24 Nordeste 0 -- -- 87
2020-11-25 22:00:00 7.5 7 Este 24 Nordeste 0 -- -- 82
2020-11-25 21:00:00 8.6 10 Este 18 Nordeste 0 -- -- 78
2020-11-25 20:00:00 10.4 8 Este 26 Este 0 -- -- 72
2020-11-25 19:00:00 11.3 9 Este 21 Este 0 -- -- 61
2020-11-25 18:00:00 12.1 6 Este 17 Sudeste 0 -- -- 60
2020-11-25 17:00:00 15 5 Sudeste 21 Sur 0 -- -- 47
2020-11-25 16:00:00 14.9 9 Sur 30 Oeste 0 -- -- 48
2020-11-25 15:00:00 15.7 6 Sudeste 20 Sur 0 -- -- 48
2020-11-25 14:00:00 14.9 13 Sudoeste 26 Sudoeste 0 -- -- 48
2020-11-25 13:00:00 15.2 11 Sur 31 Sudoeste 0 -- -- 54
2020-11-25 12:00:00 13.9 14 Sur 28 Sur 0 -- -- 62
2020-11-25 11:00:00 11.8 13 Sudoeste 25 Sur 0 -- -- 71
2020-11-25 10:00:00 7 6 Nordeste 8 Nordeste 0 -- -- 90
2020-11-25 09:00:00 5.3 5 Nordeste 7 Nordeste 0 -- -- 89
2020-11-25 08:00:00 5 4 Nordeste 9 Nordeste 0 -- -- 86
2020-11-25 07:00:00 4.6 6 Nordeste 9 Nordeste 0 -- -- 84
2020-11-25 06:00:00 4 5 Nordeste 9 Nordeste 0 -- -- 84
2020-11-25 05:00:00 3.7 5 Nordeste 8 Nordeste 0 -- -- 83
2020-11-25 04:00:00 4 3 Nordeste 8 Nordeste 0 -- -- 83
2020-11-25 03:00:00 3.2 3 Sudeste 10 Sudeste 0 -- -- 85
2020-11-25 02:00:00 2.6 2 Sur 9 Sur 0 -- -- 83
2020-11-25 01:00:00 3.7 0 Calma 6 Sudoeste 0 -- -- 80
2020-11-25 00:00:00 4.2 4 Sudoeste 7 Sur 0 -- -- 78
2020-11-24 23:00:00 3.8 3 Sur 6 Sur 0 -- -- 78
2020-11-24 22:00:00 3.8 0 Calma 8 Sudeste 0 -- -- 74
2020-11-24 21:00:00 4.9 4 Sudeste 9 Sudeste 0 -- -- 70
2020-11-24 20:00:00 6.5 8 Sudeste 12 Sudeste 0 -- -- 65
2020-11-24 19:00:00 7.9 0 Calma 4 Noroeste 0 -- -- 57
2020-11-24 18:00:00 11.3 2 Noroeste 9 Oeste 0 -- -- 44
2020-11-24 17:00:00 15.6 6 Oeste 14 Noroeste 0 -- -- 34
2020-11-24 16:00:00 15.9 9 Oeste 17 Oeste 0 -- -- 33
2020-11-24 15:00:00 15.1 9 Oeste 15 Oeste 0 -- -- 40
2020-11-24 14:00:00 16 6 Oeste 10 Sudoeste 0 -- -- 41
2020-11-24 13:00:00 13.8 3 Norte 9 Este 0 -- -- 50
2020-11-24 12:00:00 8.2 7 Nordeste 11 Nordeste 0 -- -- 87
2020-11-24 11:00:00 3.4 8 Nordeste 14 Nordeste 0 -- -- 94
2020-11-24 10:00:00 0.7 7 Nordeste 10 Nordeste 0 -- -- 94
2020-11-24 09:00:00 -0.6 0 Calma -- -- 0 -- -- 94
2020-11-24 08:00:00 -0.3 0 Calma 10 Nordeste 0 -- -- 93
2020-11-24 07:00:00 -0.3 5 Nordeste 8 Nordeste 0 -- -- 94
2020-11-24 06:00:00 -0.6 4 Nordeste 9 Nordeste 0 -- -- 92
2020-11-24 05:00:00 -0.4 4 Nordeste 8 Nordeste 0 -- -- 92
2020-11-24 04:00:00 0.6 6 Nordeste 9 Nordeste 0 -- -- 91
2020-11-24 03:00:00 0.8 5 Nordeste 9 Nordeste 0 -- -- 90
2020-11-24 02:00:00 1.3 4 Nordeste 8 Nordeste 0 -- -- 89
2020-11-24 01:00:00 2.1 4 Nordeste 9 Este 0 -- -- 86
2020-11-24 00:00:00 3.1 3 Este 7 Este 0 -- -- 84
2020-11-23 23:00:00 3 0 Calma 5 Este 0 -- -- 82
2020-11-23 22:00:00 4.8 4 Este 8 Este 0 -- -- 77
2020-11-23 21:00:00 6.1 3 Este 10 Sudeste 0 -- -- 71
2020-11-23 20:00:00 7.5 6 Este 10 Este 0 -- -- 68
2020-11-23 19:00:00 8.9 3 Nordeste 5 Nordeste 0 -- -- 64
2020-11-23 18:00:00 12 0 Calma 13 Nordeste 0 -- -- 51
2020-11-23 17:00:00 15.8 5 Este 22 Nordeste 0 -- -- 42
2020-11-23 16:00:00 16.1 12 Nordeste 23 Este 0 -- -- 43
2020-11-23 15:00:00 15.6 10 Este 27 Este 0 -- -- 44
2020-11-23 14:00:00 14.1 17 Nordeste 27 Este 0 -- -- 49
2020-11-23 13:00:00 12.6 12 Este 24 Este 0 -- -- 57
2020-11-23 12:00:00 10 14 Nordeste 23 Este 0 -- -- 66
2020-11-23 11:00:00 7.7 14 Nordeste 22 Nordeste 0 -- -- 72
2020-11-23 10:00:00 6 12 Nordeste 17 Nordeste 0 -- -- 80
2020-11-23 09:00:00 1 8 Nordeste 10 Nordeste 0 -- -- 93
2020-11-23 08:00:00 0 6 Nordeste 11 Nordeste 0 -- -- 91
2020-11-23 07:00:00 -0.5 5 Nordeste 8 Este 0 -- -- 90
2020-11-23 06:00:00 -0.8 4 Este 7 Nordeste 0 -- -- 88
2020-11-23 05:00:00 -0.4 2 Este 6 Sudeste 0 -- -- 84
2020-11-23 04:00:00 0.3 0 Calma 6 Este 0 -- -- 83
2020-11-23 03:00:00 0.6 0 Calma 5 Este 0 -- -- 83
2020-11-23 02:00:00 0.2 0 Calma 4 Nordeste 0 -- -- 84
2020-11-23 01:00:00 0.9 0 Calma 0 Calma 0 -- -- 85
2020-11-23 00:00:00 1.6 0 Calma 4 Sudeste 0 -- -- 83
2020-11-22 23:00:00 2.6 0 Calma 8 Sur 0 -- -- 82
2020-11-22 22:00:00 3 0 Calma 8 Sur 0 -- -- 81
2020-11-22 21:00:00 4.3 4 Sudeste 9 Sudeste 0 -- -- 77
2020-11-22 20:00:00 5.8 0 Calma 4 Sudeste 0 -- -- 70
2020-11-22 19:00:00 7.3 0 Calma 4 Sudeste 0 -- -- 63
2020-11-22 18:00:00 11.4 0 Calma 4 Nordeste 0 -- -- 46
2020-11-22 17:00:00 15.8 3 Nordeste 5 Nordeste 0 -- -- 38
2020-11-22 16:00:00 17.1 3 Norte 8 Nordeste 0 -- -- 35
2020-11-22 15:00:00 17.3 3 Norte 10 Nordeste 0 -- -- 42
2020-11-22 14:00:00 13.5 6 Nordeste 15 Este 0 -- -- 57
2020-11-22 13:00:00 11 10 Nordeste 19 Nordeste 0 -- -- 69
2020-11-22 12:00:00 9.1 10 Este 19 Este 0 -- -- 77
2020-11-22 11:00:00 6.3 6 Este 18 Este 0 -- -- 91
2020-11-22 10:00:00 5.4 8 Este 21 Este 0 -- -- 93
2020-11-22 09:00:00 5.4 8 Este 23 Este 0 -- -- 93
2020-11-22 08:00:00 5 13 Este 23 Nordeste 0 -- -- 94
2020-11-22 07:00:00 5 11 Este 22 Nordeste 0 -- -- 93
2020-11-22 06:00:00 5.1 12 Este 22 Este 0 -- -- 93
2020-11-22 05:00:00 4.6 9 Este 15 Nordeste 0 -- -- 93
2020-11-22 04:00:00 3.8 8 Este 12 Este 0 -- -- 93
2020-11-22 03:00:00 2.6 7 Este 16 Este 0 -- -- 92
2020-11-22 02:00:00 3.2 9 Este 21 Nordeste 0 -- -- 91
2020-11-22 01:00:00 3.6 12 Nordeste 19 Nordeste 0 -- -- 90
2020-11-22 00:00:00 3.7 8 Nordeste 19 Nordeste 0 -- -- 87
2020-11-21 23:00:00 4.6 8 Nordeste 17 Este 0 -- -- 84
2020-11-21 22:00:00 5.3 8 Nordeste 14 Nordeste 0 -- -- 79
2020-11-21 21:00:00 6 8 Nordeste 12 Nordeste 0 -- -- 76
2020-11-21 20:00:00 9.6 8 Sudeste 16 Sudeste 0 -- -- 63
2020-11-21 19:00:00 10 4 Este 16 Este 0 -- -- 61
2020-11-21 18:00:00 12.1 7 Este 25 Sudeste 0 -- -- 56
2020-11-21 17:00:00 14.5 11 Este 31 Este 0 -- -- 47
2020-11-21 16:00:00 15.4 17 Este 32 Este 0 -- -- 45
2020-11-21 15:00:00 15.8 16 Este 28 Este 0 -- -- 50
2020-11-21 14:00:00 15.8 13 Este 27 Este 0 -- -- 55
2020-11-21 13:00:00 14.3 12 Este 27 Este 0 -- -- 62
2020-11-21 12:00:00 12.5 12 Este 25 Este 0 -- -- 68
2020-11-21 11:00:00 10 11 Este 28 Nordeste 0 -- -- 66
2020-11-21 10:00:00 7.8 8 Este 22 Este 0 -- -- 77
2020-11-21 09:00:00 3.2 13 Este 22 Este 0 -- -- 88
2020-11-21 08:00:00 1.7 11 Nordeste 17 Este 0 -- -- 82
2020-11-21 07:00:00 2.4 8 Este 19 Nordeste 0 -- -- 74
2020-11-21 06:00:00 3.1 11 Nordeste 15 Nordeste 0 -- -- 71
2020-11-21 05:00:00 3.5 7 Nordeste 9 Nordeste 0 -- -- 67
2020-11-21 04:00:00 4.6 4 Sudeste 12 Nordeste 0 -- -- 63
2020-11-21 03:00:00 4.9 4 Este 14 Nordeste 0 -- -- 63
2020-11-21 02:00:00 5.5 6 Nordeste 14 Este 0 -- -- 64
2020-11-21 01:00:00 6.9 7 Nordeste 13 Nordeste 0 -- -- 63
2020-11-21 00:00:00 5.3 0 Calma 9 Nordeste 0 -- -- 77
2020-11-20 23:00:00 5.2 6 Este 10 Nordeste 0 -- -- 78
2020-11-20 22:00:00 5.9 0 Calma 9 Sudeste 0 -- -- 77
2020-11-20 21:00:00 7 0 Calma 8 Sur 0 -- -- 74
2020-11-20 20:00:00 9 3 Sur 7 Sudeste 0 -- -- 64
2020-11-20 19:00:00 10.6 0 Calma 8 Sudoeste 0 -- -- 54
2020-11-20 18:00:00 14.1 2 Sur 4 Sur 0 -- -- 39
2020-11-20 17:00:00 17.9 0 Calma 5 Sudeste 0 -- -- 28
2020-11-20 16:00:00 19.3 2 Sudoeste 8 Nordeste 0 -- -- 27
2020-11-20 15:00:00 19.7 3 Noroeste 9 Norte 0 -- -- 28
2020-11-20 14:00:00 20 3 Norte 7 Norte 0 -- -- 29
2020-11-20 13:00:00 17.9 5 Oeste 12 Noroeste 0 -- -- 37
2020-11-20 12:00:00 17.8 4 Oeste 12 Noroeste 0 -- -- 38
2020-11-20 11:00:00 15.6 4 Noroeste 8 Noroeste 0 -- -- 47
2020-11-20 10:00:00 10.3 2 Sudoeste 5 Sudoeste 0 -- -- 92
2020-11-20 09:00:00 4.2 3 Sur 5 Sudoeste 0 -- -- 95
2020-11-20 08:00:00 3.5 0 Calma 5 Sudoeste 0 -- -- 94
2020-11-20 07:00:00 3.5 0 Calma 6 Sur 0 -- -- 93
2020-11-20 06:00:00 5.1 0 Calma 4 Sudoeste 0 -- -- 94
2020-11-20 05:00:00 5.5 2 Sudoeste 5 Sudoeste 0 -- -- 94
2020-11-20 04:00:00 5.9 0 Calma 3 Oeste 0 -- -- 93
2020-11-20 03:00:00 6.5 0 Calma 3 Sudoeste 0 -- -- 92
2020-11-20 02:00:00 7.6 2 Norte 6 Norte 0 -- -- 92
2020-11-20 01:00:00 7.3 0 Calma 5 Nordeste 0 -- -- 90
2020-11-20 00:00:00 8.4 4 Nordeste 10 Nordeste 0 -- -- 88
2020-11-19 23:00:00 8.8 8 Este 12 Este 0 -- -- 84
2020-11-19 22:00:00 10.8 3 Sur 7 Sur 0 -- -- 78
2020-11-19 21:00:00 11 3 Oeste 5 Oeste 0 -- -- 79
2020-11-19 20:00:00 12.2 2 Sudoeste 4 Sur 0 -- -- 75
2020-11-19 19:00:00 13.6 0 Calma 5 Sudoeste 0 -- -- 69
2020-11-19 18:00:00 16.6 2 Sur 5 Nordeste 0 -- -- 56
2020-11-19 17:00:00 20.9 3 Nordeste 9 Sudeste 0 -- -- 44
2020-11-19 16:00:00 21.3 5 Este 16 Nordeste 0 -- -- 41
2020-11-19 15:00:00 22 9 Nordeste 15 Nordeste 0 -- -- 39
2020-11-19 14:00:00 21 6 Nordeste 12 Este 0 -- -- 41
2020-11-19 13:00:00 20 5 Nordeste 12 Este 0 -- -- 46
2020-11-19 12:00:00 20.2 5 Nordeste 10 Nordeste 0 -- -- 45
2020-11-19 11:00:00 17.2 0 Calma 7 Noroeste 0 -- -- 61
2020-11-19 10:00:00 13.7 4 Noroeste 8 Noroeste 0 -- -- 87
2020-11-19 09:00:00 5.9 3 Sudoeste 7 Sur 0 -- -- 95
2020-11-19 08:00:00 5.3 2 Sudoeste 4 Oeste 0 -- -- 95
2020-11-19 07:00:00 5.4 0 Calma 4 Sudeste 0 -- -- 94
2020-11-19 06:00:00 5.8 2 Este 5 Sudeste 0 -- -- 94
2020-11-19 05:00:00 6.2 0 Calma 6 Sudeste 0 -- -- 94
2020-11-19 04:00:00 7.3 3 Sur 5 Sudoeste 0 -- -- 92
2020-11-19 03:00:00 6.8 0 Calma 3 Sur 0 -- -- 92
2020-11-19 02:00:00 7.6 0 Calma 4 Sudoeste 0 -- -- 91
2020-11-19 01:00:00 8.3 0 Calma 5 Sudoeste 0 -- -- 90
2020-11-19 00:00:00 8.6 3 Oeste 8 Sur 0 -- -- 88
2020-11-18 23:00:00 9.9 3 Sur 9 Sudeste 0 -- -- 87
2020-11-18 22:00:00 10.6 3 Sur 11 Oeste 0 -- -- 87
2020-11-18 21:00:00 10.8 4 Sudoeste 7 Oeste 0 -- -- 86
2020-11-18 20:00:00 12.2 2 Sudoeste 5 Sudoeste 0 -- -- 81
2020-11-18 19:00:00 13.7 4 Sudoeste 8 Sudoeste 0 -- -- 76
2020-11-18 18:00:00 16 3 Sudoeste 10 Oeste 0 -- -- 67
2020-11-18 17:00:00 19.9 8 Oeste 15 Oeste 0 -- -- 52
2020-11-18 16:00:00 21.1 9 Oeste 14 Oeste 0 -- -- 46
2020-11-18 15:00:00 20.9 7 Oeste 14 Oeste 0 -- -- 49
2020-11-18 14:00:00 21.4 6 Oeste 12 Noroeste 0 -- -- 51
2020-11-18 13:00:00 20.8 6 Oeste 12 Oeste 0 -- -- 52
2020-11-18 12:00:00 19.6 0 Calma 5 Este 0 -- -- 56
2020-11-18 11:00:00 16.9 2 Nordeste 6 Nordeste 0 -- -- 64
2020-11-18 10:00:00 10.7 4 Nordeste 6 Nordeste 0 -- -- 92
2020-11-18 09:00:00 6.4 0 Calma 3 Sudeste 0 -- -- 95
2020-11-18 08:00:00 6.4 2 Este 5 Este 0 -- -- 95
2020-11-18 07:00:00 5.5 0 Calma 4 Este 0 -- -- 94
2020-11-18 06:00:00 6.1 2 Nordeste 4 Este 0 -- -- 94
2020-11-18 05:00:00 6.5 0 Calma 2 Este 0 -- -- 94
2020-11-18 04:00:00 6.5 0 Calma 3 Sur 0 -- -- 93
2020-11-18 03:00:00 7.3 0 Calma 5 Sudeste 0 -- -- 94
2020-11-18 02:00:00 7.8 3 Sudeste 5 Sudeste 0 -- -- 93
2020-11-18 01:00:00 7.8 0 Calma 6 Sudeste 0 -- -- 93
2020-11-18 00:00:00 8.4 2 Este 6 Sudeste 0 -- -- 93
2020-11-17 23:00:00 8.9 0 Calma 5 Sur 0 -- -- 92
2020-11-17 22:00:00 10.3 3 Sur 7 Sur 0 -- -- 91
2020-11-17 21:00:00 11.2 3 Sur 4 Sudoeste 0 -- -- 91
2020-11-17 20:00:00 12 0 Calma 9 Oeste 0 -- -- 87
2020-11-17 19:00:00 13.5 5 Oeste 10 Oeste 0 -- -- 81
2020-11-17 18:00:00 15.8 7 Oeste 12 Oeste 0 -- -- 72
2020-11-17 17:00:00 18.9 9 Oeste 14 Noroeste 0 -- -- 60
2020-11-17 16:00:00 20.9 6 Oeste 15 Oeste 0 -- -- 54
2020-11-17 15:00:00 19.9 7 Oeste 16 Noroeste 0 -- -- 58
2020-11-17 14:00:00 21.2 5 Oeste 11 Noroeste 0 -- -- 55
2020-11-17 13:00:00 19.3 4 Sudoeste 8 Oeste 0 -- -- 63
2020-11-17 12:00:00 18.5 3 Sudoeste 8 Oeste 0 -- -- 64
2020-11-17 11:00:00 16 0 Calma 2 Sudoeste 0 -- -- 86
2020-11-17 10:00:00 9.9 0 Calma 2 Sudoeste 0 -- -- 94
2020-11-17 09:00:00 7.5 0 Calma 5 Este 0 -- -- 94
2020-11-17 08:00:00 6.8 0 Calma 4 Sur 0 -- -- 94
2020-11-17 07:00:00 7 3 Sur 5 Sur 0 -- -- 94
2020-11-17 06:00:00 7.7 0 Calma 7 Sur 0 -- -- 93
2020-11-17 05:00:00 8.8 2 Sudoeste 7 Sur 0 -- -- 93
2020-11-17 04:00:00 9.2 0 Calma 4 Sudoeste 0 -- -- 92
2020-11-17 03:00:00 9.9 0 Calma 4 Este 0 -- -- 92
2020-11-17 02:00:00 9.9 0 Calma 4 Sudeste 0 -- -- 93
2020-11-17 01:00:00 9.4 0 Calma 4 Sur 0 -- -- 92
2020-11-17 00:00:00 9.6 2 Sudoeste 8 Sur 0 -- -- 92
2020-11-16 23:00:00 10.6 2 Sudeste 6 Sudeste 0 -- -- 90
2020-11-16 22:00:00 11.6 0 Calma 7 Sudeste 0 -- -- 87
2020-11-16 21:00:00 13 4 Sudeste 7 Noroeste 0 -- -- 83
2020-11-16 20:00:00 13.6 3 Noroeste 5 Norte 0 -- -- 82
2020-11-16 19:00:00 14.7 3 Noroeste 8 Noroeste 0 -- -- 79
2020-11-16 18:00:00 15.7 4 Oeste 11 Oeste 0 -- -- 75
2020-11-16 17:00:00 18 9 Oeste 17 Oeste 0 -- -- 65
2020-11-16 16:00:00 19.9 13 Oeste 22 Oeste 0 -- -- 62
2020-11-16 15:00:00 19.8 13 Oeste 22 Sudoeste 0 -- -- 63
2020-11-16 14:00:00 20.9 11 Oeste 18 Oeste 0 -- -- 61
2020-11-16 13:00:00 16.8 11 Oeste 17 Oeste 0 -- -- 79
2020-11-16 12:00:00 16.3 9 Sudoeste 17 Oeste 0 -- -- 82
2020-11-16 11:00:00 16 12 Oeste 21 Oeste 0 -- -- 82
2020-11-16 10:00:00 14.4 10 Sudoeste 14 Oeste 0 -- -- 87
2020-11-16 09:00:00 13.2 5 Sudoeste 18 Oeste 0 -- -- 89
2020-11-16 08:00:00 13 10 Oeste 17 Oeste 0 -- -- 89
2020-11-16 07:00:00 12.4 8 Sudoeste 14 Sudoeste 0 -- -- 90
2020-11-16 06:00:00 11.5 6 Sudoeste 11 Sudoeste 0 -- -- 90
2020-11-16 05:00:00 11.6 6 Sudoeste 12 Sudoeste 0 -- -- 90
2020-11-16 04:00:00 11.7 6 Sudoeste 14 Oeste 0 -- -- 89
2020-11-16 03:00:00 12.1 6 Oeste 11 Sudoeste 0 -- -- 88
2020-11-16 02:00:00 12.2 6 Sudoeste 14 Sudoeste 0 -- -- 86
2020-11-16 01:00:00 12.7 8 Sudoeste 18 Sudoeste 0 -- -- 85
2020-11-16 00:00:00 13.5 13 Sudoeste 19 Sur 0 -- -- 84
2020-11-15 23:00:00 13.1 7 Sudoeste 13 Sur 0 -- -- 87
2020-11-15 22:00:00 13.9 7 Sudoeste 14 Sudoeste 0 -- -- 86
2020-11-15 21:00:00 14.1 5 Sur 11 Sur 0 -- -- 88
2020-11-15 20:00:00 14.8 3 Sur 7 Sur 0 -- -- 86
2020-11-15 19:00:00 15.1 3 Oeste 11 Oeste 0 -- -- 84
2020-11-15 18:00:00 16.5 6 Noroeste 22 Oeste 0 -- -- 78
2020-11-15 17:00:00 18.5 11 Oeste 28 Oeste 0 -- -- 68
2020-11-15 16:00:00 19.9 18 Oeste 36 Oeste 0 -- -- 66
2020-11-15 15:00:00 19.7 21 Oeste 32 Oeste 0 -- -- 65
2020-11-15 14:00:00 19.6 18 Oeste 30 Oeste 0 -- -- 65
2020-11-15 13:00:00 18.6 16 Oeste 28 Oeste 0 -- -- 67
2020-11-15 12:00:00 17.1 15 Oeste 27 Sudoeste 0 -- -- 74
2020-11-15 11:00:00 14.9 14 Sudoeste 23 Sudoeste 0 -- -- 82
2020-11-15 10:00:00 12.7 6 Oeste 14 Oeste 0 -- -- 90
2020-11-15 09:00:00 11.6 4 Sudoeste 9 Sudoeste 0 -- -- 93
2020-11-15 08:00:00 11.1 4 Oeste 8 Oeste 0 -- -- 93
2020-11-15 07:00:00 10.8 4 Sudoeste 11 Sudoeste 0 -- -- 93
2020-11-15 06:00:00 10.3 4 Sudoeste 14 Sudoeste 0 -- -- 92
2020-11-15 05:00:00 11.4 10 Sudoeste 20 Sudoeste 0 -- -- 92
2020-11-15 04:00:00 11.5 10 Sudoeste 22 Sudoeste 0 -- -- 91
2020-11-15 03:00:00 12.1 11 Sudoeste 25 Sudoeste 0 -- -- 91
2020-11-15 02:00:00 12.3 13 Sudoeste 23 Sudoeste 0 -- -- 90
2020-11-15 01:00:00 12.6 11 Sudoeste 21 Oeste 0 -- -- 91
2020-11-15 00:00:00 12.6 12 Sudoeste 19 Sudoeste 0 -- -- 93
2020-11-14 23:00:00 12.7 7 Sudoeste 10 Sudoeste 0 -- -- 93
2020-11-14 22:00:00 12.7 6 Sudoeste 9 Sudoeste 0 -- -- 93
2020-11-14 21:00:00 12.8 3 Oeste 11 Sudoeste 0.2 -- -- 92
2020-11-14 20:00:00 12.9 7 Oeste 16 Sudoeste 0 -- -- 91
2020-11-14 19:00:00 13.3 4 Sudoeste 6 Sudoeste 0 -- -- 89
2020-11-14 18:00:00 13.5 5 Sudoeste 13 Sudoeste 0 -- -- 88
2020-11-14 17:00:00 13.8 9 Sudoeste 15 Sudoeste 0.2 -- -- 86
2020-11-14 16:00:00 14.5 2 Este 8 Sudeste 0 -- -- 87
2020-11-14 15:00:00 14.5 4 Este 10 Este 0 -- -- 87
2020-11-14 14:00:00 14.3 6 Nordeste 11 Este 0 -- -- 87
2020-11-14 13:00:00 13.6 6 Este 12 Nordeste 0 -- -- 90
2020-11-14 12:00:00 12.9 5 Nordeste 9 Nordeste 0.2 -- -- 92
2020-11-14 11:00:00 11.6 6 Nordeste 9 Nordeste 0 -- -- 92
2020-11-14 10:00:00 10.8 6 Este 8 Este 0.2 -- -- 92
2020-11-14 09:00:00 10.1 2 Este 7 Este 0.4 -- -- 92
2020-11-14 08:00:00 9.6 5 Nordeste 6 Nordeste 0 -- -- 92
2020-11-14 07:00:00 9.4 0 Calma 7 Nordeste 0 -- -- 91
2020-11-14 06:00:00 9.6 4 Nordeste 7 Nordeste 0 -- -- 91
2020-11-14 05:00:00 9.5 5 Nordeste 8 Nordeste 0 -- -- 91
2020-11-14 04:00:00 9.5 5 Nordeste 10 Nordeste 0 -- -- 90
2020-11-14 03:00:00 9.6 3 Nordeste 6 Este 0 -- -- 89
2020-11-14 02:00:00 9.4 5 Este 9 Nordeste 0 -- -- 89
2020-11-14 01:00:00 9.4 4 Nordeste 5 Nordeste 0 -- -- 86
2020-11-14 00:00:00 9.8 2 Este 6 Este 0 -- -- 85
2020-11-13 23:00:00 9.3 2 Este 6 Este 0 -- -- 87
2020-11-13 22:00:00 8.9 0 Calma 4 Sudeste 0 -- -- 88
2020-11-13 21:00:00 9.9 0 Calma 3 Este 0 -- -- 84
2020-11-13 20:00:00 11.2 0 Calma 2 Este 0 -- -- 80
2020-11-13 19:00:00 12.5 0 Calma 5 Este 0 -- -- 74
2020-11-13 18:00:00 14.2 3 Nordeste 5 Este 0 -- -- 67
2020-11-13 17:00:00 18.8 0 Calma 5 Este 0 -- -- 50
2020-11-13 16:00:00 18.9 5 Oeste 10 Nordeste 0 -- -- 49
2020-11-13 15:00:00 21.4 5 Norte 10 Nordeste 0 -- -- 43
2020-11-13 14:00:00 20.1 5 Nordeste 12 Norte 0 -- -- 50
2020-11-13 13:00:00 19 5 Nordeste 11 Nordeste 0 -- -- 56
2020-11-13 12:00:00 15.5 6 Este 12 Nordeste 0 -- -- 68
2020-11-13 11:00:00 14.8 4 Este 9 Sudeste 0 -- -- 69
2020-11-13 10:00:00 12 4 Este 9 Este 0 -- -- 80
2020-11-13 09:00:00 7.6 4 Nordeste 7 Nordeste 0 -- -- 93
2020-11-13 08:00:00 7.3 7 Nordeste 10 Nordeste 0 -- -- 93
2020-11-13 07:00:00 7 5 Nordeste 14 Este 0 -- -- 92
2020-11-13 06:00:00 7.1 8 Este 13 Este 0 -- -- 90
2020-11-13 05:00:00 7.5 3 Este 15 Este 0 -- -- 89
2020-11-13 04:00:00 8 8 Este 18 Este 0 -- -- 88
2020-11-13 03:00:00 8.1 9 Este 19 Este 0 -- -- 90
2020-11-13 02:00:00 8.2 6 Nordeste 15 Este 0 -- -- 87
2020-11-13 01:00:00 8.7 6 Este 16 Sudeste 0 -- -- 86
2020-11-13 00:00:00 8.9 6 Este 18 Este 0 -- -- 85
2020-11-12 23:00:00 8.8 11 Este 21 Este 0 -- -- 85
2020-11-12 22:00:00 9.2 9 Nordeste 18 Nordeste 0 -- -- 82
2020-11-12 21:00:00 9.2 11 Nordeste 16 Nordeste 0 -- -- 81
2020-11-12 20:00:00 11.3 5 Este 13 Este 0 -- -- 67
2020-11-12 19:00:00 12.7 6 Este 22 Sudeste 0 -- -- 62
2020-11-12 18:00:00 13.9 4 Este 19 Sudeste 0 -- -- 58
2020-11-12 17:00:00 16.1 5 Este 28 Este 0 -- -- 53
2020-11-12 16:00:00 16.9 13 Este 32 Este 0 -- -- 54
2020-11-12 15:00:00 15.9 12 Este 27 Este 0 -- -- 55
2020-11-12 14:00:00 14.9 11 Este 22 Este 0 -- -- 60
2020-11-12 13:00:00 14.9 11 Este 24 Este 0 -- -- 71
2020-11-12 12:00:00 10.1 10 Este 19 Nordeste 0 -- -- 94
2020-11-12 11:00:00 8.5 12 Nordeste 19 Este 0 -- -- 95
2020-11-12 10:00:00 8 9 Nordeste 15 Este 0 -- -- 95
2020-11-12 09:00:00 7.4 6 Este 18 Este 0 -- -- 95
2020-11-12 08:00:00 7.7 9 Este 19 Este 0 -- -- 95
2020-11-12 07:00:00 7.4 10 Este 19 Nordeste 0 -- -- 94
2020-11-12 06:00:00 7 6 Este 15 Nordeste 0 -- -- 94
2020-11-12 05:00:00 5.5 6 Nordeste 10 Nordeste 0 -- -- 94
2020-11-12 04:00:00 5.8 8 Este 14 Este 0 -- -- 93
2020-11-12 03:00:00 6.1 6 Nordeste 12 Nordeste 0 -- -- 92
2020-11-12 02:00:00 6.6 7 Nordeste 11 Nordeste 0 -- -- 91
2020-11-12 01:00:00 7.3 4 Nordeste 8 Nordeste 0 -- -- 90
2020-11-12 00:00:00 8.1 4 Nordeste 6 Este 0 -- -- 88
2020-11-11 23:00:00 8.8 2 Este 9 Sudeste 0 -- -- 85
2020-11-11 22:00:00 9.2 3 Este 8 Nordeste 0 -- -- 89
2020-11-11 21:00:00 9.3 2 Nordeste 9 Este 0 -- -- 87
2020-11-11 20:00:00 10.6 5 Nordeste 8 Nordeste 0 -- -- 82
2020-11-11 19:00:00 11.4 3 Norte 9 Nordeste 0 -- -- 79
2020-11-11 18:00:00 13.5 5 Nordeste 12 Nordeste 0 -- -- 69
2020-11-11 17:00:00 17.2 9 Nordeste 18 Este 0 -- -- 56
2020-11-11 16:00:00 18 10 Nordeste 19 Nordeste 0 -- -- 57
2020-11-11 15:00:00 18.4 7 Este 16 Nordeste 0 -- -- 50
2020-11-11 14:00:00 17.9 10 Nordeste 17 Nordeste 0 -- -- 57
2020-11-11 13:00:00 14.1 9 Este 20 Nordeste 0 -- -- 93
2020-11-11 12:00:00 10.7 12 Nordeste 22 Este 0 -- -- 94
2020-11-11 11:00:00 9.6 9 Este 21 Este 0 -- -- 95
2020-11-11 10:00:00 8.3 8 Este 21 Este 0 -- -- 95
2020-11-11 09:00:00 8.7 7 Este 18 Este 0 -- -- 95
2020-11-11 08:00:00 7.7 6 Este 13 Este 0 -- -- 95
2020-11-11 07:00:00 6.6 6 Este 13 Este 0 -- -- 95
2020-11-11 06:00:00 6.2 4 Este 18 Nordeste 0 -- -- 94
2020-11-11 05:00:00 5.9 7 Este 20 Nordeste 0 -- -- 93
2020-11-11 04:00:00 6 12 Este 22 Este 0 -- -- 92
2020-11-11 03:00:00 5.4 4 Nordeste 12 Nordeste 0 -- -- 92
2020-11-11 02:00:00 5.4 4 Nordeste 8 Nordeste 0 -- -- 90
2020-11-11 01:00:00 6.3 4 Sudeste 10 Sudeste 0 -- -- 87
2020-11-11 00:00:00 6.7 6 Sudeste 10 Sudeste 0 -- -- 88
2020-11-10 23:00:00 6.9 0 Calma 4 Sudeste 0 -- -- 87
2020-11-10 22:00:00 8 0 Calma 6 Sudeste 0 -- -- 84
2020-11-10 21:00:00 9 0 Calma 6 Nordeste 0 -- -- 81
2020-11-10 20:00:00 10.1 0 Calma 4 Norte 0 -- -- 77
2020-11-10 19:00:00 11.7 2 Noroeste 4 Noroeste 0 -- -- 68
2020-11-10 18:00:00 16 3 Noroeste 7 Norte 0 -- -- 49
2020-11-10 17:00:00 20 6 Norte 10 Norte 0 -- -- 36
2020-11-10 16:00:00 21.1 4 Norte 13 Noroeste 0 -- -- 37
2020-11-10 15:00:00 20.3 5 Nordeste 9 Norte 0 -- -- 43
2020-11-10 14:00:00 19.2 3 Nordeste 7 Nordeste 0 -- -- 46
2020-11-10 13:00:00 18.4 2 Norte 6 Nordeste 0 -- -- 52
2020-11-10 12:00:00 13.5 3 Nordeste 6 Nordeste 0 -- -- 90
2020-11-10 11:00:00 9.5 3 Norte 6 Nordeste 0 -- -- 94
2020-11-10 10:00:00 7.9 0 Calma 3 Este 0 -- -- 95
2020-11-10 09:00:00 6.4 0 Calma 5 Oeste 0 -- -- 95
2020-11-10 08:00:00 6.6 2 Oeste 4 Oeste 0 -- -- 95
2020-11-10 07:00:00 6.3 0 Calma 5 Sudoeste 0.2 -- -- 95
2020-11-10 06:00:00 6.3 3 Sudoeste 6 Sur 0 -- -- 94
2020-11-10 05:00:00 6.6 2 Sur 4 Sur 0 -- -- 94
2020-11-10 04:00:00 7.7 0 Calma 3 Oeste 0 -- -- 95
2020-11-10 03:00:00 6.5 0 Calma 3 Sur 0 -- -- 95
2020-11-10 02:00:00 6.8 2 Sur 5 Sur 0 -- -- 94
2020-11-10 01:00:00 7.3 0 Calma 4 Norte 0 -- -- 93
2020-11-10 00:00:00 7.9 0 Calma 4 Norte 0 -- -- 93
2020-11-09 23:00:00 8.5 0 Calma 5 Sur 0 -- -- 92
2020-11-09 22:00:00 9.5 0 Calma 5 Sudeste 0 -- -- 91
2020-11-09 21:00:00 9.8 0 Calma 5 Sudeste 0 -- -- 91
2020-11-09 20:00:00 11.1 0 Calma 4 Sur 0 -- -- 87
2020-11-09 19:00:00 11.5 0 Calma 5 Oeste 0 -- -- 86
2020-11-09 18:00:00 13.7 5 Oeste 16 Oeste 0 -- -- 76
2020-11-09 17:00:00 16.7 11 Oeste 17 Noroeste 0 -- -- 63
2020-11-09 16:00:00 17.5 10 Oeste 19 Oeste 0 -- -- 63
2020-11-09 15:00:00 17.3 13 Oeste 28 Oeste 0 -- -- 63
2020-11-09 14:00:00 14.9 8 Oeste 19 Oeste 0.2 -- -- 76
2020-11-09 13:00:00 14 14 Oeste 19 Oeste 0 -- -- 76
2020-11-09 12:00:00 14.5 4 Sudoeste 10 Oeste 0 -- -- 74
2020-11-09 11:00:00 12 4 Norte 19 Oeste 0 -- -- 87
2020-11-09 10:00:00 12.3 0 Calma 8 Este 0 -- -- 78
2020-11-09 09:00:00 9.7 5 Este 9 Nordeste 0 -- -- 88
2020-11-09 08:00:00 7.9 6 Nordeste 10 Nordeste 0 -- -- 91
2020-11-09 07:00:00 7.5 3 Nordeste 7 Nordeste 0 -- -- 91
2020-11-09 06:00:00 7.4 4 Nordeste 9 Nordeste 0 -- -- 88
2020-11-09 05:00:00 8.3 2 Este 6 Este 0 -- -- 88
2020-11-09 04:00:00 8.3 2 Este 7 Este 0 -- -- 87
2020-11-09 03:00:00 8.5 2 Este 6 Este 0 -- -- 86
2020-11-09 02:00:00 8.2 3 Sudeste 8 Sur 0 -- -- 87
2020-11-09 01:00:00 8.1 0 Calma 10 Sudeste 0 -- -- 87
2020-11-09 00:00:00 8.7 6 Sudeste 10 Sudeste 0 -- -- 85
2020-11-08 23:00:00 8.7 3 Sudeste 9 Sudeste 0 -- -- 87
2020-11-08 22:00:00 9.2 0 Calma 6 Sudeste 0 -- -- 85
2020-11-08 21:00:00 10.3 2 Sur 8 Sudeste 0 -- -- 85
2020-11-08 20:00:00 11.1 3 Sudoeste 6 Sudoeste 0 -- -- 86
2020-11-08 19:00:00 11.9 0 Calma 4 Nordeste 0 -- -- 80
2020-11-08 18:00:00 14.6 3 Este 6 Nordeste 0 -- -- 69
2020-11-08 17:00:00 18.2 5 Nordeste 10 Este 0 -- -- 56
2020-11-08 16:00:00 19.1 8 Nordeste 13 Nordeste 0 -- -- 55
2020-11-08 15:00:00 19.6 10 Nordeste 15 Nordeste 0 -- -- 54
2020-11-08 14:00:00 18 10 Este 20 Nordeste 0 -- -- 55
2020-11-08 13:00:00 18 12 Nordeste 19 Nordeste 0 -- -- 58
2020-11-08 12:00:00 17.4 7 Nordeste 13 Nordeste 0 -- -- 61
2020-11-08 11:00:00 14.1 6 Nordeste 16 Nordeste 0 -- -- 70
2020-11-08 10:00:00 10.9 9 Nordeste 14 Este 0 -- -- 90
2020-11-08 09:00:00 6.5 6 Nordeste 10 Este 0 -- -- 95
2020-11-08 08:00:00 5.1 3 Nordeste 7 Este 0 -- -- 94
2020-11-08 07:00:00 5.4 3 Este 8 Este 0 -- -- 93
2020-11-08 06:00:00 5.8 3 Nordeste 6 Este 0 -- -- 93
2020-11-08 05:00:00 6.2 3 Nordeste 9 Nordeste 0 -- -- 92
2020-11-08 04:00:00 6.5 3 Este 7 Nordeste 0 -- -- 92
2020-11-08 03:00:00 7 0 Calma 5 Sur 0 -- -- 91
2020-11-08 02:00:00 6.9 0 Calma 6 Sudeste 0 -- -- 90
2020-11-08 01:00:00 7.4 0 Calma 8 Sur 0 -- -- 89
2020-11-08 00:00:00 7.7 3 Sur 8 Sur 0 -- -- 88
2020-11-07 23:00:00 8.5 3 Sudoeste 13 Sudoeste 0 -- -- 87
2020-11-07 22:00:00 9.2 6 Sudoeste 11 Sudoeste 0 -- -- 85
2020-11-07 21:00:00 10.3 7 Sudoeste 12 Sudoeste 0 -- -- 81
2020-11-07 20:00:00 11 9 Sudoeste 14 Sudoeste 0 -- -- 81
2020-11-07 19:00:00 12.1 8 Sudoeste 18 Sudoeste 0 -- -- 79
2020-11-07 18:00:00 13.7 10 Sudoeste 26 Oeste 0 -- -- 71
2020-11-07 17:00:00 15.7 18 Oeste 35 Sudoeste 0 -- -- 63
2020-11-07 16:00:00 15.9 25 Sudoeste 43 Sudoeste 0 -- -- 61
2020-11-07 15:00:00 16.4 27 Sudoeste 44 Sudoeste 0 -- -- 61
2020-11-07 14:00:00 16.2 19 Oeste 53 Sudoeste 0 -- -- 70
2020-11-07 13:00:00 15.1 24 Sudoeste 43 Sudoeste 0 -- -- 68
2020-11-07 12:00:00 14.6 26 Sudoeste 39 Sudoeste 0 -- -- 73
2020-11-07 11:00:00 14 5 Oeste 16 Oeste 0 -- -- 74
2020-11-07 10:00:00 11.6 5 Sudoeste 13 Sur 0.2 -- -- 82
2020-11-07 09:00:00 11.3 8 Sur 14 Sur 0 -- -- 81
2020-11-07 08:00:00 11.1 4 Sur 12 Sudoeste 0 -- -- 79
2020-11-07 07:00:00 11.9 7 Sudoeste 58 Sudoeste 0 -- -- 77
2020-11-07 06:00:00 13 18 Sudoeste 29 Sudoeste 0 -- -- 76
2020-11-07 05:00:00 12.3 12 Sur 33 Sur 0.2 -- -- 81
2020-11-07 04:00:00 11.3 7 Sudoeste 26 Sudoeste 1.4 -- -- 92
2020-11-07 03:00:00 11.7 21 Sudoeste 31 Sudoeste 3.4 -- -- 92
2020-11-07 02:00:00 12.4 20 Oeste 43 Sudoeste 1.8 -- -- 90
2020-11-07 01:00:00 13.8 4 Este 17 Este 0.4 -- -- 90
2020-11-07 00:00:00 14.3 7 Este 22 Sudeste 0.2 -- -- 88
2020-11-06 23:00:00 14.6 7 Este 27 Este 0 -- -- 86
2020-11-06 22:00:00 14.6 9 Este 34 Este 0 -- -- 85
2020-11-06 21:00:00 14.6 14 Este 39 Sudeste 0 -- -- 86
2020-11-06 20:00:00 14.8 14 Este 39 Este 0 -- -- 85
2020-11-06 19:00:00 15.2 15 Este 39 Nordeste 0 -- -- 83
2020-11-06 18:00:00 16 18 Este 38 Este 0 -- -- 78
2020-11-06 17:00:00 16.9 18 Este 46 Nordeste 0 -- -- 76
2020-11-06 16:00:00 17.9 19 Este 45 Sudeste 0 -- -- 72
2020-11-06 15:00:00 18.5 19 Este 57 Este 0 -- -- 67
2020-11-06 14:00:00 18.5 27 Este 52 Este 0 -- -- 66
2020-11-06 13:00:00 18.3 28 Este 58 Sudeste 0 -- -- 67
2020-11-06 12:00:00 17.5 21 Este 55 Este 0 -- -- 78
2020-11-06 11:00:00 15.1 20 Este 39 Este 0 -- -- 84
2020-11-06 10:00:00 14.1 17 Este 36 Este 0 -- -- 90
2020-11-06 09:00:00 13.7 17 Este 37 Este 0 -- -- 91
2020-11-06 08:00:00 13.5 15 Este 36 Este 0 -- -- 92
2020-11-06 07:00:00 13.2 14 Este 35 Este 0 -- -- 94
2020-11-06 06:00:00 12.7 12 Este 34 Nordeste 0 -- -- 94
2020-11-06 05:00:00 12.4 14 Este 31 Nordeste 0 -- -- 94
2020-11-06 04:00:00 12.2 13 Este 35 Nordeste 0 -- -- 94
2020-11-06 03:00:00 12 13 Este 34 Este 0 -- -- 94
2020-11-06 02:00:00 11.9 14 Este 36 Nordeste 0 -- -- 94
2020-11-06 01:00:00 11.7 18 Este 39 Este 0 -- -- 94
2020-11-06 00:00:00 11.5 14 Este 28 Nordeste 0 -- -- 93
2020-11-05 23:00:00 11.5 9 Este 23 Este 0 -- -- 93
2020-11-05 22:00:00 11.6 9 Este 24 Este 0 -- -- 93
2020-11-05 21:00:00 11.9 12 Este 31 Este 0 -- -- 93
2020-11-05 20:00:00 12.3 13 Este 31 Nordeste 0.2 -- -- 93
2020-11-05 19:00:00 12.2 15 Nordeste 26 Este 0 -- -- 93
2020-11-05 18:00:00 12.2 13 Nordeste 32 Este 2 -- -- 92
2020-11-05 17:00:00 12.3 18 Este 50 Este 2 -- -- 92
2020-11-05 16:00:00 12.6 32 Nordeste 54 Nordeste 2.8 -- -- 92
2020-11-05 15:00:00 12 7 Este 28 Este 6.2 -- -- 93
2020-11-05 14:00:00 11.9 18 Nordeste 31 Este 1.6 -- -- 92
2020-11-05 13:00:00 10.4 14 Nordeste 35 Este 7.4 -- -- 93
2020-11-05 12:00:00 11.2 17 Este 50 Sudeste 3.8 -- -- 92
2020-11-05 11:00:00 11.6 20 Este 41 Este 0 -- -- 91
2020-11-05 10:00:00 10.8 29 Este 63 Nordeste 8 -- -- 93
2020-11-05 09:00:00 10.9 19 Este 45 Nordeste 1.2 -- -- 90
2020-11-05 08:00:00 10.9 21 Este 48 Nordeste 0.8 -- -- 90
2020-11-05 07:00:00 11.3 17 Este 46 Este 0 -- -- 87
2020-11-05 06:00:00 11.1 27 Este 51 Este 0 -- -- 87
2020-11-05 05:00:00 10.7 26 Este 61 Este 0 -- -- 87
2020-11-05 04:00:00 10.9 26 Este 56 Este 0 -- -- 85
2020-11-05 03:00:00 10.7 18 Este 53 Este 0 -- -- 87
2020-11-05 02:00:00 10.7 20 Este 50 Este 0 -- -- 89
2020-11-05 01:00:00 10.5 19 Este 46 Este 0 -- -- 90
2020-11-05 00:00:00 10.3 18 Este 49 Nordeste 0 -- -- 90